Řízení letového provozu České republiky
Letiste: LKMT Aktualizace: 13.11.2019 21:00:26  UTC
 METAR LKMT 13.11. 21:00 ...
METAR LKMT 132100Z 22008KT 8000 -RA SCT006 OVC015 04/03 Q1006 NOSIG RMK REG QNH 1002=
 TAF LKMT 13.11. 17:00 ...
TAF LKMT 131700Z 1318/1500 03006KT 5000 BR BKN012      TEMPO 1318/1408 3000 RA BR BKN007      PROB30 TEMPO 1318/1407 1200 BR BKN005      BECMG 1408/1410 9999 BKN040      TEMPO 1410/1500 7000 BKN020=